sensor_id;sensor_type;location;lat;lon;timestamp;temperature;humidity
10492;DHT22;5293;51.464;-2.566;2023-08-31T00:00:40;14.70;99.90
10492;DHT22;5293;51.464;-2.566;2023-08-31T00:03:07;14.80;99.90
10492;DHT22;5293;51.464;-2.566;2023-08-31T00:05:32;14.70;99.90
10492;DHT22;5293;51.464;-2.566;2023-08-31T00:07:58;14.80;99.90
10492;DHT22;5293;51.464;-2.566;2023-08-31T00:10:23;14.70;99.90
10492;DHT22;5293;51.464;-2.566;2023-08-31T00:12:49;14.60;99.90
10492;DHT22;5293;51.464;-2.566;2023-08-31T00:15:15;14.60;99.90
10492;DHT22;5293;51.464;-2.566;2023-08-31T00:17:41;14.70;99.90
10492;DHT22;5293;51.464;-2.566;2023-08-31T00:20:08;14.60;99.90
10492;DHT22;5293;51.464;-2.566;2023-08-31T00:22:37;14.60;99.90
10492;DHT22;5293;51.464;-2.566;2023-08-31T00:25:04;14.60;99.90
10492;DHT22;5293;51.464;-2.566;2023-08-31T00:27:31;14.50;99.90
10492;DHT22;5293;51.464;-2.566;2023-08-31T00:29:56;14.60;99.90
10492;DHT22;5293;51.464;-2.566;2023-08-31T00:32:23;14.50;99.90
10492;DHT22;5293;51.464;-2.566;2023-08-31T00:34:50;14.50;99.90
10492;DHT22;5293;51.464;-2.566;2023-08-31T00:37:15;14.50;99.90
10492;DHT22;5293;51.464;-2.566;2023-08-31T00:39:41;14.50;99.90
10492;DHT22;5293;51.464;-2.566;2023-08-31T00:42:07;14.50;99.90
10492;DHT22;5293;51.464;-2.566;2023-08-31T00:44:33;14.50;99.90
10492;DHT22;5293;51.464;-2.566;2023-08-31T00:46:58;14.50;99.90
10492;DHT22;5293;51.464;-2.566;2023-08-31T00:49:25;14.50;99.90
10492;DHT22;5293;51.464;-2.566;2023-08-31T00:51:51;14.40;99.90
10492;DHT22;5293;51.464;-2.566;2023-08-31T00:54:19;14.40;99.90
10492;DHT22;5293;51.464;-2.566;2023-08-31T00:56:54;14.40;99.90
10492;DHT22;5293;51.464;-2.566;2023-08-31T00:59:20;14.40;99.90
10492;DHT22;5293;51.464;-2.566;2023-08-31T01:01:58;14.40;99.90
10492;DHT22;5293;51.464;-2.566;2023-08-31T01:05:33;14.40;99.90
10492;DHT22;5293;51.464;-2.566;2023-08-31T01:07:40;14.40;99.90
10492;DHT22;5293;51.464;-2.566;2023-08-31T01:13:14;14.30;99.90
10492;DHT22;5293;51.464;-2.566;2023-08-31T01:15:46;14.30;99.90
10492;DHT22;5293;51.464;-2.566;2023-08-31T01:18:16;14.30;99.90
10492;DHT22;5293;51.464;-2.566;2023-08-31T01:20:46;14.30;99.90
10492;DHT22;5293;51.464;-2.566;2023-08-31T01:23:17;14.30;99.90
10492;DHT22;5293;51.464;-2.566;2023-08-31T01:25:44;14.30;99.90
10492;DHT22;5293;51.464;-2.566;2023-08-31T01:28:10;14.20;99.90
10492;DHT22;5293;51.464;-2.566;2023-08-31T01:30:36;14.30;99.90
10492;DHT22;5293;51.464;-2.566;2023-08-31T01:33:02;14.30;99.90
10492;DHT22;5293;51.464;-2.566;2023-08-31T01:35:33;14.30;99.90
10492;DHT22;5293;51.464;-2.566;2023-08-31T01:38:02;14.30;99.90
10492;DHT22;5293;51.464;-2.566;2023-08-31T01:40:40;14.30;99.90
10492;DHT22;5293;51.464;-2.566;2023-08-31T01:43:08;14.30;99.90
10492;DHT22;5293;51.464;-2.566;2023-08-31T01:45:35;14.30;99.90
10492;DHT22;5293;51.464;-2.566;2023-08-31T01:48:01;14.30;99.90
10492;DHT22;5293;51.464;-2.566;2023-08-31T01:50:27;14.30;99.90
10492;DHT22;5293;51.464;-2.566;2023-08-31T01:52:52;14.30;99.90
10492;DHT22;5293;51.464;-2.566;2023-08-31T01:55:18;14.20;99.90
10492;DHT22;5293;51.464;-2.566;2023-08-31T01:57:44;14.20;99.90
10492;DHT22;5293;51.464;-2.566;2023-08-31T02:00:10;14.30;99.90
10492;DHT22;5293;51.464;-2.566;2023-08-31T02:02:36;14.30;99.90
10492;DHT22;5293;51.464;-2.566;2023-08-31T02:05:02;14.30;99.90
10492;DHT22;5293;51.464;-2.566;2023-08-31T02:07:30;14.30;99.90
10492;DHT22;5293;51.464;-2.566;2023-08-31T02:09:56;14.20;99.90
10492;DHT22;5293;51.464;-2.566;2023-08-31T02:12:22;14.20;99.90
10492;DHT22;5293;51.464;-2.566;2023-08-31T02:14:48;14.20;99.90
10492;DHT22;5293;51.464;-2.566;2023-08-31T02:17:13;14.20;99.90
10492;DHT22;5293;51.464;-2.566;2023-08-31T02:19:39;14.20;99.90
10492;DHT22;5293;51.464;-2.566;2023-08-31T02:22:04;14.20;99.90
10492;DHT22;5293;51.464;-2.566;2023-08-31T02:24:30;14.20;99.90
10492;DHT22;5293;51.464;-2.566;2023-08-31T02:26:56;14.10;99.90
10492;DHT22;5293;51.464;-2.566;2023-08-31T02:29:22;14.10;99.90
10492;DHT22;5293;51.464;-2.566;2023-08-31T02:31:47;14.10;99.90
10492;DHT22;5293;51.464;-2.566;2023-08-31T02:34:13;14.10;99.90
10492;DHT22;5293;51.464;-2.566;2023-08-31T02:36:39;14.10;99.90
10492;DHT22;5293;51.464;-2.566;2023-08-31T02:39:05;14.10;99.90
10492;DHT22;5293;51.464;-2.566;2023-08-31T02:41:31;14.10;99.90
10492;DHT22;5293;51.464;-2.566;2023-08-31T02:43:57;14.10;99.90
10492;DHT22;5293;51.464;-2.566;2023-08-31T02:46:23;14.10;99.90
10492;DHT22;5293;51.464;-2.566;2023-08-31T02:48:49;14.20;99.90
10492;DHT22;5293;51.464;-2.566;2023-08-31T02:51:15;14.20;99.90
10492;DHT22;5293;51.464;-2.566;2023-08-31T02:53:41;14.20;99.90
10492;DHT22;5293;51.464;-2.566;2023-08-31T02:56:07;14.20;99.90
10492;DHT22;5293;51.464;-2.566;2023-08-31T02:58:33;14.10;99.90
10492;DHT22;5293;51.464;-2.566;2023-08-31T03:01:12;14.10;99.90
10492;DHT22;5293;51.464;-2.566;2023-08-31T03:03:39;14.00;99.90
10492;DHT22;5293;51.464;-2.566;2023-08-31T03:06:08;14.00;99.90
10492;DHT22;5293;51.464;-2.566;2023-08-31T03:08:35;14.00;99.90
10492;DHT22;5293;51.464;-2.566;2023-08-31T03:11:02;14.00;99.90
10492;DHT22;5293;51.464;-2.566;2023-08-31T03:13:28;14.00;99.90
10492;DHT22;5293;51.464;-2.566;2023-08-31T03:15:53;13.90;99.90
10492;DHT22;5293;51.464;-2.566;2023-08-31T03:18:19;14.00;99.90
10492;DHT22;5293;51.464;-2.566;2023-08-31T03:20:45;14.00;99.90
10492;DHT22;5293;51.464;-2.566;2023-08-31T03:23:10;14.00;99.90
10492;DHT22;5293;51.464;-2.566;2023-08-31T03:25:37;14.10;99.90
10492;DHT22;5293;51.464;-2.566;2023-08-31T03:28:03;14.10;99.90
10492;DHT22;5293;51.464;-2.566;2023-08-31T03:30:29;14.10;99.90
10492;DHT22;5293;51.464;-2.566;2023-08-31T03:32:54;14.20;99.90
10492;DHT22;5293;51.464;-2.566;2023-08-31T03:35:20;14.10;99.90
10492;DHT22;5293;51.464;-2.566;2023-08-31T03:37:48;14.10;99.90
10492;DHT22;5293;51.464;-2.566;2023-08-31T03:40:13;14.10;99.90
10492;DHT22;5293;51.464;-2.566;2023-08-31T03:42:39;14.10;99.90
10492;DHT22;5293;51.464;-2.566;2023-08-31T03:45:05;14.10;99.90
10492;DHT22;5293;51.464;-2.566;2023-08-31T03:47:31;14.10;99.90
10492;DHT22;5293;51.464;-2.566;2023-08-31T03:49:57;14.10;99.90
10492;DHT22;5293;51.464;-2.566;2023-08-31T03:52:23;14.10;99.90
10492;DHT22;5293;51.464;-2.566;2023-08-31T03:54:49;14.10;99.90
10492;DHT22;5293;51.464;-2.566;2023-08-31T03:57:15;14.10;99.90
10492;DHT22;5293;51.464;-2.566;2023-08-31T03:59:41;14.10;99.90
10492;DHT22;5293;51.464;-2.566;2023-08-31T04:02:06;14.10;99.90
10492;DHT22;5293;51.464;-2.566;2023-08-31T04:04:32;14.10;99.90
10492;DHT22;5293;51.464;-2.566;2023-08-31T04:06:59;14.10;99.90
10492;DHT22;5293;51.464;-2.566;2023-08-31T04:09:25;14.10;99.90
10492;DHT22;5293;51.464;-2.566;2023-08-31T04:11:51;14.10;99.90
10492;DHT22;5293;51.464;-2.566;2023-08-31T04:14:16;14.10;99.90
10492;DHT22;5293;51.464;-2.566;2023-08-31T04:16:44;14.10;99.90
10492;DHT22;5293;51.464;-2.566;2023-08-31T04:19:10;14.10;99.90
10492;DHT22;5293;51.464;-2.566;2023-08-31T04:21:35;14.10;99.90
10492;DHT22;5293;51.464;-2.566;2023-08-31T04:24:03;14.10;99.90
10492;DHT22;5293;51.464;-2.566;2023-08-31T04:26:28;14.10;99.90
10492;DHT22;5293;51.464;-2.566;2023-08-31T04:28:54;14.10;99.90
10492;DHT22;5293;51.464;-2.566;2023-08-31T04:31:20;14.10;99.90
10492;DHT22;5293;51.464;-2.566;2023-08-31T04:33:46;14.10;99.90
10492;DHT22;5293;51.464;-2.566;2023-08-31T04:36:13;14.10;99.90
10492;DHT22;5293;51.464;-2.566;2023-08-31T04:38:39;14.00;99.90
10492;DHT22;5293;51.464;-2.566;2023-08-31T04:41:05;14.10;99.90
10492;DHT22;5293;51.464;-2.566;2023-08-31T04:43:30;14.10;99.90
10492;DHT22;5293;51.464;-2.566;2023-08-31T04:45:57;14.10;99.90
10492;DHT22;5293;51.464;-2.566;2023-08-31T04:48:22;14.00;99.90
10492;DHT22;5293;51.464;-2.566;2023-08-31T04:50:48;14.10;99.90
10492;DHT22;5293;51.464;-2.566;2023-08-31T04:53:14;14.10;99.90
10492;DHT22;5293;51.464;-2.566;2023-08-31T04:55:39;14.20;99.90
10492;DHT22;5293;51.464;-2.566;2023-08-31T04:58:05;14.20;99.90
10492;DHT22;5293;51.464;-2.566;2023-08-31T05:00:31;14.20;99.90
10492;DHT22;5293;51.464;-2.566;2023-08-31T05:02:57;14.20;99.90
10492;DHT22;5293;51.464;-2.566;2023-08-31T05:05:23;14.20;99.90
10492;DHT22;5293;51.464;-2.566;2023-08-31T05:07:48;14.10;99.90
10492;DHT22;5293;51.464;-2.566;2023-08-31T05:10:14;14.20;99.90
10492;DHT22;5293;51.464;-2.566;2023-08-31T05:12:40;14.20;99.90
10492;DHT22;5293;51.464;-2.566;2023-08-31T05:15:06;14.20;99.90
10492;DHT22;5293;51.464;-2.566;2023-08-31T05:17:32;14.20;99.90
10492;DHT22;5293;51.464;-2.566;2023-08-31T05:19:58;14.20;99.90
10492;DHT22;5293;51.464;-2.566;2023-08-31T05:22:23;14.20;99.90
10492;DHT22;5293;51.464;-2.566;2023-08-31T05:24:49;14.20;99.90
10492;DHT22;5293;51.464;-2.566;2023-08-31T05:27:15;14.20;99.90
10492;DHT22;5293;51.464;-2.566;2023-08-31T05:29:40;14.20;99.90
10492;DHT22;5293;51.464;-2.566;2023-08-31T05:32:06;14.20;99.90
10492;DHT22;5293;51.464;-2.566;2023-08-31T05:34:32;14.20;99.90
10492;DHT22;5293;51.464;-2.566;2023-08-31T05:37:03;14.20;99.90
10492;DHT22;5293;51.464;-2.566;2023-08-31T05:39:30;14.30;99.90
10492;DHT22;5293;51.464;-2.566;2023-08-31T05:41:56;14.20;99.90
10492;DHT22;5293;51.464;-2.566;2023-08-31T05:44:22;14.30;99.90
10492;DHT22;5293;51.464;-2.566;2023-08-31T05:46:48;14.30;99.90
10492;DHT22;5293;51.464;-2.566;2023-08-31T05:49:13;14.30;99.90
10492;DHT22;5293;51.464;-2.566;2023-08-31T05:51:39;14.30;99.90
10492;DHT22;5293;51.464;-2.566;2023-08-31T05:54:05;14.30;99.90
10492;DHT22;5293;51.464;-2.566;2023-08-31T05:56:35;14.30;99.90
10492;DHT22;5293;51.464;-2.566;2023-08-31T05:59:01;14.30;99.90
10492;DHT22;5293;51.464;-2.566;2023-08-31T06:01:27;14.30;99.90
10492;DHT22;5293;51.464;-2.566;2023-08-31T06:03:53;14.30;99.90
10492;DHT22;5293;51.464;-2.566;2023-08-31T06:06:18;14.30;99.90
10492;DHT22;5293;51.464;-2.566;2023-08-31T06:08:44;14.30;99.90
10492;DHT22;5293;51.464;-2.566;2023-08-31T06:11:10;14.30;99.90
10492;DHT22;5293;51.464;-2.566;2023-08-31T06:13:35;14.30;99.90
10492;DHT22;5293;51.464;-2.566;2023-08-31T06:16:01;14.20;99.90
10492;DHT22;5293;51.464;-2.566;2023-08-31T06:18:27;14.20;99.90
10492;DHT22;5293;51.464;-2.566;2023-08-31T06:20:52;14.20;99.90
10492;DHT22;5293;51.464;-2.566;2023-08-31T06:23:18;14.20;99.90
10492;DHT22;5293;51.464;-2.566;2023-08-31T06:25:44;14.30;99.90
10492;DHT22;5293;51.464;-2.566;2023-08-31T06:28:11;14.30;99.90
10492;DHT22;5293;51.464;-2.566;2023-08-31T06:30:38;14.30;99.90
10492;DHT22;5293;51.464;-2.566;2023-08-31T06:33:04;14.30;99.90
10492;DHT22;5293;51.464;-2.566;2023-08-31T06:35:30;14.30;99.90
10492;DHT22;5293;51.464;-2.566;2023-08-31T06:37:56;14.40;99.90
10492;DHT22;5293;51.464;-2.566;2023-08-31T06:40:25;14.40;99.90
10492;DHT22;5293;51.464;-2.566;2023-08-31T06:42:51;14.40;99.90
10492;DHT22;5293;51.464;-2.566;2023-08-31T06:45:16;14.40;99.90
10492;DHT22;5293;51.464;-2.566;2023-08-31T06:47:42;14.40;99.90
10492;DHT22;5293;51.464;-2.566;2023-08-31T06:50:08;14.40;99.90
10492;DHT22;5293;51.464;-2.566;2023-08-31T06:52:34;14.40;99.90
10492;DHT22;5293;51.464;-2.566;2023-08-31T06:54:59;14.40;99.90
10492;DHT22;5293;51.464;-2.566;2023-08-31T06:57:26;14.40;99.90
10492;DHT22;5293;51.464;-2.566;2023-08-31T06:59:53;14.40;99.90
10492;DHT22;5293;51.464;-2.566;2023-08-31T07:02:19;14.40;99.90
10492;DHT22;5293;51.464;-2.566;2023-08-31T07:04:45;14.40;99.90
10492;DHT22;5293;51.464;-2.566;2023-08-31T07:07:11;14.50;99.90
10492;DHT22;5293;51.464;-2.566;2023-08-31T07:09:42;14.50;99.90
10492;DHT22;5293;51.464;-2.566;2023-08-31T07:12:08;14.60;99.90
10492;DHT22;5293;51.464;-2.566;2023-08-31T07:14:33;14.60;99.90
10492;DHT22;5293;51.464;-2.566;2023-08-31T07:16:59;14.50;99.90
10492;DHT22;5293;51.464;-2.566;2023-08-31T07:19:25;14.60;99.90
10492;DHT22;5293;51.464;-2.566;2023-08-31T07:21:51;14.60;99.90
10492;DHT22;5293;51.464;-2.566;2023-08-31T07:24:16;14.60;99.90
10492;DHT22;5293;51.464;-2.566;2023-08-31T07:26:42;14.60;99.90
10492;DHT22;5293;51.464;-2.566;2023-08-31T07:29:08;14.80;99.90
10492;DHT22;5293;51.464;-2.566;2023-08-31T07:31:34;14.80;99.90
10492;DHT22;5293;51.464;-2.566;2023-08-31T07:33:59;14.80;99.90
10492;DHT22;5293;51.464;-2.566;2023-08-31T07:36:25;14.90;99.90
10492;DHT22;5293;51.464;-2.566;2023-08-31T07:38:51;14.80;99.90
10492;DHT22;5293;51.464;-2.566;2023-08-31T07:41:17;14.80;99.90
10492;DHT22;5293;51.464;-2.566;2023-08-31T07:43:42;14.80;99.90
10492;DHT22;5293;51.464;-2.566;2023-08-31T07:46:08;14.90;99.90
10492;DHT22;5293;51.464;-2.566;2023-08-31T07:48:33;15.00;99.90
10492;DHT22;5293;51.464;-2.566;2023-08-31T07:50:59;15.00;99.90
10492;DHT22;5293;51.464;-2.566;2023-08-31T07:53:25;15.00;99.90
10492;DHT22;5293;51.464;-2.566;2023-08-31T07:55:54;15.00;99.90
10492;DHT22;5293;51.464;-2.566;2023-08-31T07:58:21;15.00;99.90
10492;DHT22;5293;51.464;-2.566;2023-08-31T08:00:47;15.00;99.90
10492;DHT22;5293;51.464;-2.566;2023-08-31T08:03:12;15.00;99.90
10492;DHT22;5293;51.464;-2.566;2023-08-31T08:05:39;15.00;99.90
10492;DHT22;5293;51.464;-2.566;2023-08-31T08:08:06;14.90;99.90
10492;DHT22;5293;51.464;-2.566;2023-08-31T08:10:32;15.00;99.90
10492;DHT22;5293;51.464;-2.566;2023-08-31T08:12:57;14.90;99.90
10492;DHT22;5293;51.464;-2.566;2023-08-31T08:15:24;14.90;99.90
10492;DHT22;5293;51.464;-2.566;2023-08-31T08:17:50;14.90;99.90
10492;DHT22;5293;51.464;-2.566;2023-08-31T08:20:15;14.90;99.90
10492;DHT22;5293;51.464;-2.566;2023-08-31T08:22:41;15.00;99.90
10492;DHT22;5293;51.464;-2.566;2023-08-31T08:25:07;14.90;99.90
10492;DHT22;5293;51.464;-2.566;2023-08-31T08:27:33;15.00;99.90
10492;DHT22;5293;51.464;-2.566;2023-08-31T08:30:01;15.10;99.90
10492;DHT22;5293;51.464;-2.566;2023-08-31T08:32:27;15.20;99.90
10492;DHT22;5293;51.464;-2.566;2023-08-31T08:34:53;15.10;99.90
10492;DHT22;5293;51.464;-2.566;2023-08-31T08:37:19;15.10;99.90
10492;DHT22;5293;51.464;-2.566;2023-08-31T08:39:51;15.20;99.90
10492;DHT22;5293;51.464;-2.566;2023-08-31T08:42:18;15.20;99.90
10492;DHT22;5293;51.464;-2.566;2023-08-31T08:44:43;15.30;99.90
10492;DHT22;5293;51.464;-2.566;2023-08-31T08:47:11;15.30;99.90
10492;DHT22;5293;51.464;-2.566;2023-08-31T08:49:37;15.40;99.90
10492;DHT22;5293;51.464;-2.566;2023-08-31T08:52:04;15.40;99.90
10492;DHT22;5293;51.464;-2.566;2023-08-31T08:54:30;15.40;99.90
10492;DHT22;5293;51.464;-2.566;2023-08-31T08:56:56;15.60;99.90
10492;DHT22;5293;51.464;-2.566;2023-08-31T08:59:22;15.50;99.90
10492;DHT22;5293;51.464;-2.566;2023-08-31T09:01:48;15.60;99.90
10492;DHT22;5293;51.464;-2.566;2023-08-31T09:04:14;15.70;99.90
10492;DHT22;5293;51.464;-2.566;2023-08-31T09:06:40;15.80;99.90
10492;DHT22;5293;51.464;-2.566;2023-08-31T09:09:09;15.90;99.90
10492;DHT22;5293;51.464;-2.566;2023-08-31T09:11:35;15.80;99.90
10492;DHT22;5293;51.464;-2.566;2023-08-31T09:14:22;15.80;99.90
10492;DHT22;5293;51.464;-2.566;2023-08-31T09:16:50;15.80;99.90
10492;DHT22;5293;51.464;-2.566;2023-08-31T09:19:25;15.80;99.90
10492;DHT22;5293;51.464;-2.566;2023-08-31T09:21:56;15.80;99.90
10492;DHT22;5293;51.464;-2.566;2023-08-31T09:24:22;15.80;99.90
10492;DHT22;5293;51.464;-2.566;2023-08-31T09:26:58;15.80;99.90
10492;DHT22;5293;51.464;-2.566;2023-08-31T09:29:24;15.70;99.90
10492;DHT22;5293;51.464;-2.566;2023-08-31T09:31:50;15.60;99.90
10492;DHT22;5293;51.464;-2.566;2023-08-31T09:34:17;15.50;99.90
10492;DHT22;5293;51.464;-2.566;2023-08-31T09:36:43;15.20;99.90
10492;DHT22;5293;51.464;-2.566;2023-08-31T09:39:10;15.20;99.90
10492;DHT22;5293;51.464;-2.566;2023-08-31T09:41:52;15.20;99.90
10492;DHT22;5293;51.464;-2.566;2023-08-31T09:44:19;15.20;99.90
10492;DHT22;5293;51.464;-2.566;2023-08-31T09:46:46;15.20;99.90
10492;DHT22;5293;51.464;-2.566;2023-08-31T09:49:14;15.30;99.90
10492;DHT22;5293;51.464;-2.566;2023-08-31T09:51:46;15.40;99.90
10492;DHT22;5293;51.464;-2.566;2023-08-31T09:54:14;15.40;99.90
10492;DHT22;5293;51.464;-2.566;2023-08-31T09:56:42;15.40;99.90
10492;DHT22;5293;51.464;-2.566;2023-08-31T09:59:09;15.40;99.90
10492;DHT22;5293;51.464;-2.566;2023-08-31T10:01:36;15.30;99.90
10492;DHT22;5293;51.464;-2.566;2023-08-31T10:04:02;15.20;99.90
10492;DHT22;5293;51.464;-2.566;2023-08-31T10:06:29;15.30;99.90
10492;DHT22;5293;51.464;-2.566;2023-08-31T10:08:56;15.30;99.90
10492;DHT22;5293;51.464;-2.566;2023-08-31T10:11:24;15.40;99.90
10492;DHT22;5293;51.464;-2.566;2023-08-31T10:13:52;15.30;99.90
10492;DHT22;5293;51.464;-2.566;2023-08-31T10:16:19;15.20;99.90
10492;DHT22;5293;51.464;-2.566;2023-08-31T10:18:45;15.10;99.90
10492;DHT22;5293;51.464;-2.566;2023-08-31T10:21:12;15.00;99.90
10492;DHT22;5293;51.464;-2.566;2023-08-31T10:23:45;14.90;99.90
10492;DHT22;5293;51.464;-2.566;2023-08-31T10:26:11;14.90;99.90
10492;DHT22;5293;51.464;-2.566;2023-08-31T10:28:41;15.00;99.90
10492;DHT22;5293;51.464;-2.566;2023-08-31T10:31:14;14.90;99.90
10492;DHT22;5293;51.464;-2.566;2023-08-31T10:33:45;14.90;99.90
10492;DHT22;5293;51.464;-2.566;2023-08-31T10:36:15;15.10;99.90
10492;DHT22;5293;51.464;-2.566;2023-08-31T10:38:46;15.10;99.90
10492;DHT22;5293;51.464;-2.566;2023-08-31T10:43:44;15.30;99.90
10492;DHT22;5293;51.464;-2.566;2023-08-31T10:48:52;15.20;99.90
10492;DHT22;5293;51.464;-2.566;2023-08-31T10:51:21;15.30;99.90
10492;DHT22;5293;51.464;-2.566;2023-08-31T10:53:46;15.40;99.90
10492;DHT22;5293;51.464;-2.566;2023-08-31T10:56:12;15.30;99.90
10492;DHT22;5293;51.464;-2.566;2023-08-31T10:58:39;15.40;99.90
10492;DHT22;5293;51.464;-2.566;2023-08-31T11:01:04;15.50;99.90
10492;DHT22;5293;51.464;-2.566;2023-08-31T11:03:30;15.50;99.90
10492;DHT22;5293;51.464;-2.566;2023-08-31T11:05:57;15.40;99.90
10492;DHT22;5293;51.464;-2.566;2023-08-31T11:08:26;15.50;99.90
10492;DHT22;5293;51.464;-2.566;2023-08-31T11:10:52;15.50;99.90
10492;DHT22;5293;51.464;-2.566;2023-08-31T11:13:22;15.60;99.90
10492;DHT22;5293;51.464;-2.566;2023-08-31T11:15:48;15.60;99.90
10492;DHT22;5293;51.464;-2.566;2023-08-31T11:18:15;15.70;99.90
10492;DHT22;5293;51.464;-2.566;2023-08-31T11:20:43;15.80;99.90
10492;DHT22;5293;51.464;-2.566;2023-08-31T11:23:09;15.60;99.90
10492;DHT22;5293;51.464;-2.566;2023-08-31T11:25:35;15.70;99.90
10492;DHT22;5293;51.464;-2.566;2023-08-31T11:28:04;15.70;99.90
10492;DHT22;5293;51.464;-2.566;2023-08-31T11:30:31;15.70;99.90
10492;DHT22;5293;51.464;-2.566;2023-08-31T11:33:01;15.80;99.90
10492;DHT22;5293;51.464;-2.566;2023-08-31T11:35:37;15.90;99.90
10492;DHT22;5293;51.464;-2.566;2023-08-31T11:38:05;15.90;99.90
10492;DHT22;5293;51.464;-2.566;2023-08-31T11:40:31;16.00;99.90
10492;DHT22;5293;51.464;-2.566;2023-08-31T11:43:00;16.10;99.90
10492;DHT22;5293;51.464;-2.566;2023-08-31T11:45:27;16.10;99.90
10492;DHT22;5293;51.464;-2.566;2023-08-31T11:47:53;16.10;99.90
10492;DHT22;5293;51.464;-2.566;2023-08-31T11:50:21;16.20;99.90
10492;DHT22;5293;51.464;-2.566;2023-08-31T11:52:47;16.10;99.90
10492;DHT22;5293;51.464;-2.566;2023-08-31T11:55:15;16.10;99.90
10492;DHT22;5293;51.464;-2.566;2023-08-31T11:57:49;16.10;99.90
10492;DHT22;5293;51.464;-2.566;2023-08-31T12:00:17;16.20;99.90
10492;DHT22;5293;51.464;-2.566;2023-08-31T12:02:42;16.30;99.90
10492;DHT22;5293;51.464;-2.566;2023-08-31T12:05:11;16.50;99.90
10492;DHT22;5293;51.464;-2.566;2023-08-31T12:07:40;16.50;99.90
10492;DHT22;5293;51.464;-2.566;2023-08-31T12:10:08;16.50;99.90
10492;DHT22;5293;51.464;-2.566;2023-08-31T12:12:33;16.40;99.90
10492;DHT22;5293;51.464;-2.566;2023-08-31T12:15:01;16.30;99.90
10492;DHT22;5293;51.464;-2.566;2023-08-31T12:17:29;16.30;99.90
10492;DHT22;5293;51.464;-2.566;2023-08-31T12:20:04;16.30;99.90
10492;DHT22;5293;51.464;-2.566;2023-08-31T12:22:30;16.40;99.90
10492;DHT22;5293;51.464;-2.566;2023-08-31T12:24:56;16.30;99.90
10492;DHT22;5293;51.464;-2.566;2023-08-31T12:27:22;16.40;99.90
10492;DHT22;5293;51.464;-2.566;2023-08-31T12:29:47;16.50;99.90
10492;DHT22;5293;51.464;-2.566;2023-08-31T12:32:13;16.70;99.90
10492;DHT22;5293;51.464;-2.566;2023-08-31T12:34:39;16.70;99.90
10492;DHT22;5293;51.464;-2.566;2023-08-31T12:37:05;16.60;99.90
10492;DHT22;5293;51.464;-2.566;2023-08-31T12:39:31;16.70;99.90
10492;DHT22;5293;51.464;-2.566;2023-08-31T12:41:57;16.80;99.90
10492;DHT22;5293;51.464;-2.566;2023-08-31T12:44:23;16.90;99.90
10492;DHT22;5293;51.464;-2.566;2023-08-31T12:46:51;16.80;99.90
10492;DHT22;5293;51.464;-2.566;2023-08-31T12:49:17;16.90;99.90
10492;DHT22;5293;51.464;-2.566;2023-08-31T12:51:43;16.90;99.90
10492;DHT22;5293;51.464;-2.566;2023-08-31T12:54:09;16.80;99.90
10492;DHT22;5293;51.464;-2.566;2023-08-31T12:56:35;16.70;99.90
10492;DHT22;5293;51.464;-2.566;2023-08-31T12:59:00;16.70;99.90
10492;DHT22;5293;51.464;-2.566;2023-08-31T13:01:26;16.60;99.90
10492;DHT22;5293;51.464;-2.566;2023-08-31T13:03:52;16.60;99.90
10492;DHT22;5293;51.464;-2.566;2023-08-31T13:06:18;16.60;99.90
10492;DHT22;5293;51.464;-2.566;2023-08-31T13:08:44;16.50;99.90
10492;DHT22;5293;51.464;-2.566;2023-08-31T13:11:11;16.60;99.90
10492;DHT22;5293;51.464;-2.566;2023-08-31T13:13:38;16.70;99.90
10492;DHT22;5293;51.464;-2.566;2023-08-31T13:16:04;16.70;99.90
10492;DHT22;5293;51.464;-2.566;2023-08-31T13:18:29;16.70;99.90
10492;DHT22;5293;51.464;-2.566;2023-08-31T13:20:55;16.70;99.90
10492;DHT22;5293;51.464;-2.566;2023-08-31T13:23:22;16.70;99.90
10492;DHT22;5293;51.464;-2.566;2023-08-31T13:25:48;16.60;99.90
10492;DHT22;5293;51.464;-2.566;2023-08-31T13:28:14;16.50;99.90
10492;DHT22;5293;51.464;-2.566;2023-08-31T13:30:40;16.50;99.90
10492;DHT22;5293;51.464;-2.566;2023-08-31T13:33:08;16.50;99.90
10492;DHT22;5293;51.464;-2.566;2023-08-31T13:35:34;16.60;99.90
10492;DHT22;5293;51.464;-2.566;2023-08-31T13:38:00;16.60;99.90
10492;DHT22;5293;51.464;-2.566;2023-08-31T13:40:26;16.60;99.90
10492;DHT22;5293;51.464;-2.566;2023-08-31T13:42:59;16.60;99.90
10492;DHT22;5293;51.464;-2.566;2023-08-31T13:45:29;16.70;99.90
10492;DHT22;5293;51.464;-2.566;2023-08-31T13:47:56;16.70;99.90
10492;DHT22;5293;51.464;-2.566;2023-08-31T13:50:22;16.80;99.90
10492;DHT22;5293;51.464;-2.566;2023-08-31T13:52:48;16.80;99.90
10492;DHT22;5293;51.464;-2.566;2023-08-31T13:55:13;16.80;99.90
10492;DHT22;5293;51.464;-2.566;2023-08-31T13:57:42;16.80;99.90
10492;DHT22;5293;51.464;-2.566;2023-08-31T14:00:08;16.80;99.90
10492;DHT22;5293;51.464;-2.566;2023-08-31T14:02:35;16.80;99.90
10492;DHT22;5293;51.464;-2.566;2023-08-31T14:05:02;16.90;99.90
10492;DHT22;5293;51.464;-2.566;2023-08-31T14:07:28;16.90;99.90
10492;DHT22;5293;51.464;-2.566;2023-08-31T14:09:54;16.90;99.90
10492;DHT22;5293;51.464;-2.566;2023-08-31T14:12:19;16.90;99.90
10492;DHT22;5293;51.464;-2.566;2023-08-31T14:14:45;16.90;99.90
10492;DHT22;5293;51.464;-2.566;2023-08-31T14:17:12;17.00;99.90
10492;DHT22;5293;51.464;-2.566;2023-08-31T14:19:37;16.90;99.90
10492;DHT22;5293;51.464;-2.566;2023-08-31T14:22:04;17.00;99.90
10492;DHT22;5293;51.464;-2.566;2023-08-31T14:24:30;17.10;99.90
10492;DHT22;5293;51.464;-2.566;2023-08-31T14:26:56;17.10;99.90
10492;DHT22;5293;51.464;-2.566;2023-08-31T14:29:23;17.10;99.90
10492;DHT22;5293;51.464;-2.566;2023-08-31T14:31:48;17.20;99.90
10492;DHT22;5293;51.464;-2.566;2023-08-31T14:34:14;17.30;99.90
10492;DHT22;5293;51.464;-2.566;2023-08-31T14:36:40;17.30;99.90
10492;DHT22;5293;51.464;-2.566;2023-08-31T14:39:06;17.40;99.90
10492;DHT22;5293;51.464;-2.566;2023-08-31T14:41:31;17.40;99.90
10492;DHT22;5293;51.464;-2.566;2023-08-31T14:43:57;17.50;99.90
10492;DHT22;5293;51.464;-2.566;2023-08-31T14:46:23;17.60;99.90
10492;DHT22;5293;51.464;-2.566;2023-08-31T14:48:50;17.60;99.90
10492;DHT22;5293;51.464;-2.566;2023-08-31T14:51:16;17.60;99.90
10492;DHT22;5293;51.464;-2.566;2023-08-31T14:53:42;17.60;99.90
10492;DHT22;5293;51.464;-2.566;2023-08-31T14:56:08;17.70;99.90
10492;DHT22;5293;51.464;-2.566;2023-08-31T14:58:33;17.60;99.90
10492;DHT22;5293;51.464;-2.566;2023-08-31T15:00:59;17.50;99.90
10492;DHT22;5293;51.464;-2.566;2023-08-31T15:03:25;17.50;99.90
10492;DHT22;5293;51.464;-2.566;2023-08-31T15:05:50;17.50;99.90
10492;DHT22;5293;51.464;-2.566;2023-08-31T15:08:16;17.50;99.90
10492;DHT22;5293;51.464;-2.566;2023-08-31T15:10:42;17.50;99.90
10492;DHT22;5293;51.464;-2.566;2023-08-31T15:13:08;17.70;99.90
10492;DHT22;5293;51.464;-2.566;2023-08-31T15:15:34;17.80;99.90
10492;DHT22;5293;51.464;-2.566;2023-08-31T15:17:59;18.00;99.90
10492;DHT22;5293;51.464;-2.566;2023-08-31T15:20:25;18.10;99.90
10492;DHT22;5293;51.464;-2.566;2023-08-31T15:22:53;18.10;99.90
10492;DHT22;5293;51.464;-2.566;2023-08-31T15:25:19;18.10;99.90
10492;DHT22;5293;51.464;-2.566;2023-08-31T15:27:44;18.20;99.90
10492;DHT22;5293;51.464;-2.566;2023-08-31T15:30:11;18.10;99.90
10492;DHT22;5293;51.464;-2.566;2023-08-31T15:32:37;18.20;99.90
10492;DHT22;5293;51.464;-2.566;2023-08-31T15:35:03;18.20;99.90